FDX45L ESGG-EDDK
Flight info
| Callsign | FDX45L |
|---|---|
| Flight time | 1h 10m |
| Altitude | 34000 |
| Route | VADIN M852 EKERN DCT ELSOB DCT LARBU Z189 RUNER T858 KOPAG KOPAG1F |
| Aircraft | MD11/H-SDE1E2E3FGHIJ2J3J4J5M1RWXY/LB1D1 |
Departure
| Time | 2026-04-30 12:31 |
|---|---|
| Airport | Göteborg Landvetter Airport (ESGG) |
Arrival
| Time | 2026-04-30 13:41 |
|---|---|
| Airport | Cologne Bonn Airport (EDDK) |
| Time | Latitude | Longitude | Altitude | Speed | Heading |
|---|---|---|---|---|---|
| 2026-04-30 12:09 | 57.67176 | 12.29641 | 516 ft | 0 kts | 116° |
| 2026-04-30 12:21 | 57.67179 | 12.29629 | 516 ft | 1 kts | 116° |
| 2026-04-30 12:21 | 57.67183 | 12.29613 | 516 ft | 2 kts | 110° |
| 2026-04-30 12:21 | 57.67186 | 12.29585 | 515 ft | 2 kts | 86° |
| 2026-04-30 12:21 | 57.67182 | 12.29558 | 515 ft | 2 kts | 66° |
| 2026-04-30 12:22 | 57.67175 | 12.29534 | 515 ft | 2 kts | 47° |
| 2026-04-30 12:22 | 57.67164 | 12.29518 | 515 ft | 1 kts | 28° |
| 2026-04-30 12:22 | 57.67160 | 12.29514 | 515 ft | 0 kts | 25° |
| 2026-04-30 12:22 | 57.67160 | 12.29513 | 515 ft | 0 kts | 25° |
| 2026-04-30 12:23 | 57.67160 | 12.29514 | 515 ft | 0 kts | 25° |
| 2026-04-30 12:25 | 57.67165 | 12.29518 | 515 ft | 1 kts | 25° |
| 2026-04-30 12:25 | 57.67178 | 12.29530 | 515 ft | 2 kts | 26° |
| 2026-04-30 12:25 | 57.67200 | 12.29551 | 515 ft | 4 kts | 27° |
| 2026-04-30 12:26 | 57.67231 | 12.29582 | 515 ft | 6 kts | 27° |
| 2026-04-30 12:26 | 57.67282 | 12.29630 | 516 ft | 9 kts | 24° |
| 2026-04-30 12:26 | 57.67337 | 12.29660 | 516 ft | 5 kts | 350° |
| 2026-04-30 12:26 | 57.67363 | 12.29636 | 516 ft | 4 kts | 326° |
| 2026-04-30 12:27 | 57.67404 | 12.29578 | 515 ft | 9 kts | 321° |
| 2026-04-30 12:27 | 57.67443 | 12.29564 | 515 ft | 4 kts | 11° |
| 2026-04-30 12:27 | 57.67465 | 12.29576 | 515 ft | 3 kts | 16° |
| 2026-04-30 12:27 | 57.67494 | 12.29589 | 515 ft | 3 kts | 7° |
| 2026-04-30 12:28 | 57.67512 | 12.29589 | 515 ft | 1 kts | 334° |
| 2026-04-30 12:28 | 57.67519 | 12.29578 | 515 ft | 1 kts | 320° |
| 2026-04-30 12:28 | 57.67533 | 12.29556 | 515 ft | 3 kts | 319° |
| 2026-04-30 12:28 | 57.67554 | 12.29520 | 515 ft | 4 kts | 315° |
| 2026-04-30 12:29 | 57.67568 | 12.29482 | 515 ft | 4 kts | 303° |
| 2026-04-30 12:29 | 57.67580 | 12.29439 | 515 ft | 3 kts | 291° |
| 2026-04-30 12:29 | 57.67586 | 12.29363 | 515 ft | 9 kts | 273° |
| 2026-04-30 12:29 | 57.67583 | 12.29222 | 515 ft | 7 kts | 263° |
| 2026-04-30 12:30 | 57.67571 | 12.29171 | 515 ft | 3 kts | 227° |
| 2026-04-30 12:30 | 57.67552 | 12.29137 | 514 ft | 1 kts | 213° |
| 2026-04-30 12:30 | 57.67532 | 12.29119 | 514 ft | 8 kts | 206° |
| 2026-04-30 12:30 | 57.67254 | 12.28862 | 514 ft | 86 kts | 206° |
| 2026-04-30 12:31 | 57.66488 | 12.28162 | 511 ft | 157 kts | 204° |
| 2026-04-30 12:31 | 57.65359 | 12.27201 | 781 ft | 185 kts | 206° |
| 2026-04-30 12:31 | 57.64208 | 12.26256 | 1519 ft | 183 kts | 207° |
| 2026-04-30 12:31 | 57.63092 | 12.25236 | 2288 ft | 182 kts | 210° |
| 2026-04-30 12:32 | 57.61889 | 12.24063 | 2535 ft | 207 kts | 210° |
| 2026-04-30 12:32 | 57.60522 | 12.22818 | 2729 ft | 236 kts | 197° |
| 2026-04-30 12:32 | 57.58827 | 12.22487 | 3236 ft | 254 kts | 178° |
| 2026-04-30 12:32 | 57.57040 | 12.22745 | 3849 ft | 266 kts | 179° |
| 2026-04-30 12:33 | 57.55156 | 12.22683 | 4490 ft | 275 kts | 185° |
| 2026-04-30 12:33 | 57.53253 | 12.22286 | 5156 ft | 280 kts | 188° |
| 2026-04-30 12:33 | 57.51318 | 12.21797 | 5865 ft | 284 kts | 187° |
| 2026-04-30 12:33 | 57.49347 | 12.21328 | 6606 ft | 289 kts | 186° |
| 2026-04-30 12:34 | 57.47358 | 12.20887 | 7458 ft | 293 kts | 186° |
| 2026-04-30 12:34 | 57.45329 | 12.20433 | 8260 ft | 298 kts | 189° |
| 2026-04-30 12:34 | 57.43357 | 12.19377 | 8960 ft | 304 kts | 208° |
| 2026-04-30 12:34 | 57.41636 | 12.17090 | 9736 ft | 305 kts | 227° |
| 2026-04-30 12:35 | 57.40216 | 12.14228 | 10568 ft | 308 kts | 231° |
| 2026-04-30 12:35 | 57.38728 | 12.11157 | 10897 ft | 334 kts | 229° |
| 2026-04-30 12:35 | 57.37067 | 12.07902 | 11041 ft | 363 kts | 227° |
| 2026-04-30 12:35 | 57.35228 | 12.04428 | 11163 ft | 391 kts | 226° |
| 2026-04-30 12:36 | 57.33266 | 12.00773 | 11709 ft | 405 kts | 226° |
| 2026-04-30 12:36 | 57.31276 | 11.97084 | 12402 ft | 413 kts | 225° |
| 2026-04-30 12:36 | 57.28996 | 11.93831 | 13040 ft | 423 kts | 209° |
| 2026-04-30 12:36 | 57.26281 | 11.91626 | 13797 ft | 427 kts | 200° |
| 2026-04-30 12:37 | 57.23553 | 11.89588 | 14532 ft | 433 kts | 203° |
| 2026-04-30 12:37 | 57.20813 | 11.87260 | 15287 ft | 437 kts | 206° |
| 2026-04-30 12:37 | 57.18091 | 11.84746 | 15963 ft | 441 kts | 207° |
| 2026-04-30 12:37 | 57.15378 | 11.82166 | 16656 ft | 444 kts | 207° |
| 2026-04-30 12:38 | 57.12637 | 11.79538 | 17354 ft | 446 kts | 207° |
| 2026-04-30 12:38 | 57.09916 | 11.76923 | 18002 ft | 450 kts | 207° |
| 2026-04-30 12:38 | 57.07127 | 11.74240 | 18640 ft | 453 kts | 207° |
| 2026-04-30 12:38 | 57.04335 | 11.71559 | 19260 ft | 456 kts | 208° |
| 2026-04-30 12:39 | 57.01521 | 11.68848 | 19845 ft | 460 kts | 208° |
| 2026-04-30 12:39 | 56.98693 | 11.66121 | 20428 ft | 463 kts | 208° |
| 2026-04-30 12:39 | 56.95873 | 11.63406 | 20986 ft | 467 kts | 208° |
| 2026-04-30 12:39 | 56.92984 | 11.60623 | 21529 ft | 471 kts | 208° |
| 2026-04-30 12:40 | 56.90090 | 11.57837 | 22092 ft | 475 kts | 208° |
| 2026-04-30 12:40 | 56.87149 | 11.55006 | 22643 ft | 478 kts | 208° |
| 2026-04-30 12:40 | 56.84192 | 11.52157 | 23188 ft | 482 kts | 209° |
| 2026-04-30 12:40 | 56.81237 | 11.49313 | 23714 ft | 485 kts | 209° |
| 2026-04-30 12:41 | 56.78235 | 11.46422 | 24257 ft | 489 kts | 209° |
| 2026-04-30 12:41 | 56.75265 | 11.43559 | 24800 ft | 492 kts | 209° |
| 2026-04-30 12:41 | 56.72222 | 11.40623 | 25290 ft | 496 kts | 209° |
| 2026-04-30 12:41 | 56.69170 | 11.37682 | 25783 ft | 499 kts | 209° |
| 2026-04-30 12:42 | 56.66146 | 11.34767 | 26265 ft | 502 kts | 208° |
| 2026-04-30 12:42 | 56.63039 | 11.31771 | 26800 ft | 503 kts | 208° |
| 2026-04-30 12:42 | 56.59950 | 11.28793 | 27286 ft | 505 kts | 208° |
| 2026-04-30 12:42 | 56.55831 | 11.24831 | 27874 ft | 509 kts | 208° |
| 2026-04-30 12:43 | 56.53742 | 11.22877 | 28132 ft | 511 kts | 207° |
| 2026-04-30 12:43 | 56.50578 | 11.19949 | 28527 ft | 514 kts | 207° |
| 2026-04-30 12:43 | 56.47401 | 11.17003 | 29212 ft | 510 kts | 208° |
| 2026-04-30 12:43 | 56.44288 | 11.14104 | 29796 ft | 508 kts | 208° |
| 2026-04-30 12:44 | 56.41151 | 11.11178 | 30354 ft | 507 kts | 208° |
| 2026-04-30 12:44 | 56.38042 | 11.08286 | 30869 ft | 505 kts | 208° |
| 2026-04-30 12:44 | 56.34932 | 11.05386 | 31372 ft | 503 kts | 208° |
| 2026-04-30 12:44 | 56.31833 | 11.02493 | 31808 ft | 502 kts | 208° |
| 2026-04-30 12:45 | 56.28761 | 10.99591 | 32213 ft | 500 kts | 208° |
| 2026-04-30 12:45 | 56.25696 | 10.96791 | 32548 ft | 500 kts | 206° |
| 2026-04-30 12:45 | 56.22507 | 10.94263 | 32817 ft | 500 kts | 203° |
| 2026-04-30 12:45 | 56.19311 | 10.91949 | 33082 ft | 499 kts | 202° |
| 2026-04-30 12:46 | 56.16112 | 10.89623 | 33349 ft | 499 kts | 203° |
| 2026-04-30 12:46 | 56.12917 | 10.87273 | 33628 ft | 498 kts | 203° |
| 2026-04-30 12:46 | 56.09726 | 10.84956 | 33898 ft | 497 kts | 202° |
| 2026-04-30 12:46 | 56.06540 | 10.82644 | 34171 ft | 497 kts | 202° |
| 2026-04-30 12:47 | 56.03334 | 10.80317 | 34429 ft | 496 kts | 202° |
| 2026-04-30 12:47 | 56.00133 | 10.77992 | 34426 ft | 496 kts | 202° |
| 2026-04-30 12:47 | 55.93806 | 10.73401 | 34438 ft | 494 kts | 202° |
| 2026-04-30 12:48 | 55.87465 | 10.68799 | 34443 ft | 495 kts | 203° |
| 2026-04-30 12:48 | 55.81068 | 10.64153 | 34445 ft | 496 kts | 203° |
| 2026-04-30 12:49 | 55.74718 | 10.59538 | 34447 ft | 496 kts | 203° |
| 2026-04-30 12:49 | 55.68372 | 10.54925 | 34452 ft | 496 kts | 203° |
| 2026-04-30 12:50 | 55.61984 | 10.50277 | 34450 ft | 496 kts | 203° |
| 2026-04-30 12:50 | 55.55633 | 10.45661 | 34453 ft | 496 kts | 203° |
| 2026-04-30 12:51 | 55.49297 | 10.41054 | 34459 ft | 496 kts | 203° |
| 2026-04-30 12:51 | 55.42921 | 10.36416 | 34472 ft | 496 kts | 203° |
| 2026-04-30 12:52 | 55.36542 | 10.31776 | 34474 ft | 497 kts | 202° |
| 2026-04-30 12:52 | 55.30152 | 10.27295 | 34467 ft | 497 kts | 202° |
| 2026-04-30 12:53 | 55.23764 | 10.22818 | 34471 ft | 496 kts | 202° |
| 2026-04-30 12:53 | 55.17366 | 10.18315 | 34481 ft | 498 kts | 202° |
| 2026-04-30 12:54 | 55.10950 | 10.13802 | 34478 ft | 500 kts | 202° |
| 2026-04-30 12:54 | 55.04531 | 10.09286 | 34482 ft | 501 kts | 202° |
| 2026-04-30 12:55 | 54.98062 | 10.04736 | 34481 ft | 500 kts | 202° |
| 2026-04-30 12:55 | 54.91618 | 10.00359 | 34470 ft | 500 kts | 199° |
| 2026-04-30 12:56 | 54.84903 | 9.97378 | 34480 ft | 500 kts | 189° |
| 2026-04-30 12:56 | 54.78049 | 9.95244 | 34474 ft | 500 kts | 190° |
| 2026-04-30 12:57 | 54.71249 | 9.93040 | 34469 ft | 500 kts | 190° |
| 2026-04-30 12:57 | 54.64437 | 9.90817 | 34465 ft | 501 kts | 190° |
| 2026-04-30 12:58 | 54.57578 | 9.88626 | 34464 ft | 502 kts | 190° |
| 2026-04-30 12:58 | 54.50752 | 9.86449 | 34477 ft | 502 kts | 190° |
| 2026-04-30 12:59 | 54.43930 | 9.84197 | 34468 ft | 503 kts | 190° |
| 2026-04-30 12:59 | 54.37042 | 9.81886 | 34470 ft | 502 kts | 190° |
| 2026-04-30 13:00 | 54.30257 | 9.79623 | 34471 ft | 502 kts | 190° |
| 2026-04-30 13:00 | 54.23414 | 9.77340 | 34473 ft | 502 kts | 190° |
| 2026-04-30 13:01 | 54.16582 | 9.75061 | 34476 ft | 502 kts | 190° |
| 2026-04-30 13:01 | 54.09735 | 9.72780 | 34479 ft | 503 kts | 190° |
| 2026-04-30 13:02 | 54.02855 | 9.70487 | 34481 ft | 503 kts | 190° |
| 2026-04-30 13:02 | 53.94859 | 9.67823 | 34477 ft | 504 kts | 190° |
| 2026-04-30 13:03 | 53.89162 | 9.65924 | 34477 ft | 504 kts | 190° |
| 2026-04-30 13:03 | 53.82319 | 9.63642 | 34467 ft | 504 kts | 190° |
| 2026-04-30 13:04 | 53.75430 | 9.61345 | 34471 ft | 504 kts | 190° |
| 2026-04-30 13:04 | 53.68589 | 9.59063 | 34474 ft | 503 kts | 190° |
| 2026-04-30 13:05 | 53.61733 | 9.56986 | 34475 ft | 503 kts | 186° |
| 2026-04-30 13:06 | 53.51328 | 9.54841 | 34473 ft | 504 kts | 186° |
| 2026-04-30 13:06 | 53.44370 | 9.53316 | 34471 ft | 504 kts | 186° |
| 2026-04-30 13:07 | 53.37431 | 9.51780 | 34473 ft | 504 kts | 186° |
| 2026-04-30 13:07 | 53.30538 | 9.50256 | 34469 ft | 503 kts | 186° |
| 2026-04-30 13:08 | 53.23620 | 9.48726 | 34466 ft | 504 kts | 186° |
| 2026-04-30 13:08 | 53.16703 | 9.47197 | 34458 ft | 501 kts | 186° |
| 2026-04-30 13:09 | 53.09877 | 9.45691 | 34458 ft | 496 kts | 186° |
| 2026-04-30 13:09 | 53.03043 | 9.44184 | 34456 ft | 500 kts | 186° |
| 2026-04-30 13:10 | 52.96129 | 9.42656 | 34447 ft | 501 kts | 186° |
| 2026-04-30 13:10 | 52.89238 | 9.41133 | 34441 ft | 500 kts | 186° |
| 2026-04-30 13:11 | 52.82368 | 9.39615 | 34438 ft | 500 kts | 186° |
| 2026-04-30 13:11 | 52.75500 | 9.38112 | 34437 ft | 500 kts | 185° |
| 2026-04-30 13:12 | 52.68595 | 9.36659 | 34445 ft | 500 kts | 185° |
| 2026-04-30 13:12 | 52.61728 | 9.35202 | 34447 ft | 500 kts | 185° |
| 2026-04-30 13:13 | 52.51403 | 9.33004 | 34443 ft | 500 kts | 184° |
| 2026-04-30 13:14 | 52.41056 | 9.30802 | 34440 ft | 500 kts | 184° |
| 2026-04-30 13:14 | 52.30760 | 9.28612 | 34441 ft | 500 kts | 184° |
| 2026-04-30 13:15 | 52.20459 | 9.26425 | 34443 ft | 500 kts | 184° |
| 2026-04-30 13:16 | 52.13584 | 9.24962 | 34435 ft | 500 kts | 184° |
| 2026-04-30 13:16 | 52.06686 | 9.23495 | 34431 ft | 500 kts | 184° |
| 2026-04-30 13:17 | 51.96350 | 9.21295 | 34428 ft | 500 kts | 184° |
| 2026-04-30 13:17 | 51.89551 | 9.19181 | 34419 ft | 503 kts | 196° |
| 2026-04-30 13:18 | 51.86342 | 9.17012 | 34069 ft | 504 kts | 205° |
| 2026-04-30 13:18 | 51.80708 | 9.10333 | 32319 ft | 505 kts | 226° |
| 2026-04-30 13:18 | 51.78490 | 9.05906 | 31504 ft | 505 kts | 237° |
| 2026-04-30 13:19 | 51.76769 | 9.01004 | 30761 ft | 504 kts | 243° |
| 2026-04-30 13:19 | 51.75053 | 8.96090 | 30010 ft | 502 kts | 238° |
| 2026-04-30 13:19 | 51.73088 | 8.91478 | 29215 ft | 499 kts | 233° |
| 2026-04-30 13:19 | 51.70979 | 8.87117 | 28403 ft | 493 kts | 230° |
| 2026-04-30 13:20 | 51.68821 | 8.82930 | 27625 ft | 483 kts | 229° |
| 2026-04-30 13:20 | 51.66657 | 8.78854 | 26944 ft | 475 kts | 229° |
| 2026-04-30 13:20 | 51.64507 | 8.74855 | 26246 ft | 472 kts | 228° |
| 2026-04-30 13:20 | 51.62290 | 8.70980 | 25490 ft | 468 kts | 223° |
| 2026-04-30 13:21 | 51.59873 | 8.67650 | 24855 ft | 461 kts | 215° |
| 2026-04-30 13:21 | 51.57165 | 8.64917 | 24086 ft | 456 kts | 206° |
| 2026-04-30 13:21 | 51.54412 | 8.62566 | 23374 ft | 451 kts | 206° |
| 2026-04-30 13:22 | 51.49034 | 8.57878 | 21933 ft | 433 kts | 207° |
| 2026-04-30 13:22 | 51.46430 | 8.55562 | 21285 ft | 425 kts | 207° |
| 2026-04-30 13:22 | 51.41325 | 8.51009 | 20031 ft | 421 kts | 206° |
| 2026-04-30 13:23 | 51.38778 | 8.48742 | 19407 ft | 421 kts | 206° |
| 2026-04-30 13:23 | 51.33704 | 8.44214 | 18163 ft | 413 kts | 206° |
| 2026-04-30 13:24 | 51.28847 | 8.39691 | 16785 ft | 402 kts | 214° |
| 2026-04-30 13:24 | 51.25248 | 8.32993 | 15761 ft | 406 kts | 239° |
| 2026-04-30 13:25 | 51.22574 | 8.25136 | 14915 ft | 399 kts | 239° |
| 2026-04-30 13:25 | 51.19886 | 8.17598 | 14176 ft | 385 kts | 238° |
| 2026-04-30 13:26 | 51.15976 | 8.06855 | 12915 ft | 363 kts | 238° |
| 2026-04-30 13:26 | 51.13502 | 8.00064 | 12251 ft | 344 kts | 238° |
| 2026-04-30 13:27 | 51.11158 | 7.93633 | 11686 ft | 326 kts | 237° |
| 2026-04-30 13:28 | 51.07784 | 7.84540 | 10518 ft | 315 kts | 237° |
| 2026-04-30 13:28 | 51.06270 | 7.78173 | 9687 ft | 307 kts | 266° |
| 2026-04-30 13:28 | 51.06279 | 7.74790 | 9284 ft | 303 kts | 272° |
| 2026-04-30 13:29 | 51.06431 | 7.68119 | 8418 ft | 300 kts | 270° |
| 2026-04-30 13:29 | 51.06459 | 7.61620 | 7733 ft | 289 kts | 269° |
| 2026-04-30 13:30 | 51.06457 | 7.52202 | 6947 ft | 283 kts | 269° |
| 2026-04-30 13:31 | 51.06461 | 7.45896 | 6438 ft | 283 kts | 269° |
| 2026-04-30 13:31 | 51.06473 | 7.36930 | 5934 ft | 259 kts | 269° |
| 2026-04-30 13:32 | 51.06483 | 7.31196 | 5951 ft | 257 kts | 268° |
| 2026-04-30 13:32 | 51.06728 | 7.25477 | 5730 ft | 261 kts | 277° |
| 2026-04-30 13:33 | 51.07268 | 7.19853 | 5115 ft | 255 kts | 277° |
| 2026-04-30 13:33 | 51.07770 | 7.14329 | 4964 ft | 254 kts | 275° |
| 2026-04-30 13:34 | 51.07884 | 7.11512 | 4881 ft | 255 kts | 267° |
| 2026-04-30 13:34 | 51.07550 | 7.03498 | 4016 ft | 236 kts | 263° |
| 2026-04-30 13:35 | 51.07443 | 7.00884 | 3798 ft | 236 kts | 264° |
| 2026-04-30 13:35 | 51.06811 | 6.96028 | 3403 ft | 216 kts | 231° |
| 2026-04-30 13:36 | 51.04626 | 6.93061 | 3056 ft | 200 kts | 189° |
| 2026-04-30 13:36 | 51.03304 | 6.93013 | 2969 ft | 186 kts | 156° |
| 2026-04-30 13:36 | 51.01611 | 6.95613 | 2947 ft | 165 kts | 119° |
| 2026-04-30 13:37 | 51.00749 | 6.96801 | 2998 ft | 168 kts | 149° |
| 2026-04-30 13:37 | 50.98625 | 6.98336 | 2924 ft | 166 kts | 142° |
| 2026-04-30 13:38 | 50.96762 | 7.00520 | 2486 ft | 165 kts | 135° |
| 2026-04-30 13:38 | 50.95925 | 7.01651 | 2249 ft | 153 kts | 135° |
| 2026-04-30 13:38 | 50.94355 | 7.03838 | 1872 ft | 151 kts | 134° |
| 2026-04-30 13:39 | 50.92778 | 7.06084 | 1480 ft | 157 kts | 133° |
| 2026-04-30 13:39 | 50.91165 | 7.08409 | 1065 ft | 157 kts | 133° |
| 2026-04-30 13:40 | 50.90354 | 7.09595 | 903 ft | 158 kts | 135° |
| 2026-04-30 13:40 | 50.89560 | 7.10772 | 638 ft | 159 kts | 137° |
| 2026-04-30 13:40 | 50.88702 | 7.11937 | 479 ft | 162 kts | 134° |
| 2026-04-30 13:40 | 50.87865 | 7.13173 | 285 ft | 159 kts | 134° |
| 2026-04-30 13:41 | 50.87118 | 7.14270 | 257 ft | 122 kts | 139° |
| 2026-04-30 13:41 | 50.86671 | 7.14913 | 276 ft | 59 kts | 138° |
| 2026-04-30 13:41 | 50.86396 | 7.15273 | 286 ft | 35 kts | 157° |
| 2026-04-30 13:41 | 50.86258 | 7.15323 | 291 ft | 13 kts | 170° |
| 2026-04-30 13:42 | 50.86183 | 7.15344 | 292 ft | 8 kts | 168° |
| 2026-04-30 13:42 | 50.86145 | 7.15355 | 292 ft | 3 kts | 173° |
| 2026-04-30 13:42 | 50.86056 | 7.15210 | 285 ft | 15 kts | 273° |
| 2026-04-30 13:43 | 50.86090 | 7.15069 | 284 ft | 13 kts | 315° |
| 2026-04-30 13:43 | 50.86177 | 7.14944 | 282 ft | 20 kts | 318° |
| 2026-04-30 13:43 | 50.86302 | 7.14765 | 279 ft | 26 kts | 316° |
| 2026-04-30 13:43 | 50.86444 | 7.14556 | 271 ft | 30 kts | 318° |
| 2026-04-30 13:44 | 50.86605 | 7.14322 | 266 ft | 31 kts | 317° |
| 2026-04-30 13:44 | 50.86777 | 7.14113 | 259 ft | 28 kts | 328° |
| 2026-04-30 13:44 | 50.86913 | 7.13932 | 254 ft | 16 kts | 315° |
| 2026-04-30 13:44 | 50.86949 | 7.13839 | 250 ft | 3 kts | 247° |
| 2026-04-30 13:45 | 50.86911 | 7.13761 | 247 ft | 0 kts | 231° |
| 2026-04-30 13:45 | 50.86907 | 7.13753 | 246 ft | 0 kts | 229° |